Time;durP1;ratioP1;P1;durP2;ratioP2;P2;SDS_P1;SDS_P2;PMS_P1;PMS_P2;Temp;Humidity;BMP_temperature;BMP_pressure;BME280_temperature;BME280_humidity;BME280_pressure;Samples;Min_cycle;Max_cycle;Signal;HPM_P1;HPM_P2
2022/04/25 00:01:49;;;;;;;4.17;3.77;;;23.30;51.80;;;;;;5033268;28;20416;-84
2022/04/25 00:04:16;;;;;;;4.30;3.90;;;23.30;51.80;;;;;;4999350;28;20439;-84
2022/04/25 00:06:42;;;;;;;3.53;3.23;;;23.30;51.80;;;;;;5015697;28;20427;-84
2022/04/25 00:09:09;;;;;;;4.07;3.67;;;23.30;51.80;;;;;;5000017;28;20466;-84
2022/04/25 00:11:35;;;;;;;4.13;3.73;;;23.20;51.70;;;;;;5015586;28;20419;-84
2022/04/25 00:14:01;;;;;;;4.33;3.93;;;23.30;51.80;;;;;;5015452;28;20447;-84
2022/04/25 00:16:28;;;;;;;3.50;3.20;;;23.20;51.70;;;;;;5010352;28;20185;-84
2022/04/25 00:18:53;;;;;;;5.70;4.20;;;23.30;51.80;;;;;;5012022;28;20428;-84
2022/04/25 00:21:21;;;;;;;4.23;3.70;;;23.30;51.80;;;;;;4999849;28;20446;-84
2022/04/25 00:23:47;;;;;;;4.10;3.70;;;23.20;51.70;;;;;;5015595;28;20180;-84
2022/04/25 00:26:13;;;;;;;4.13;3.73;;;23.20;51.70;;;;;;5015041;28;20473;-84
2022/04/25 00:28:38;;;;;;;5.20;3.67;;;23.20;51.70;;;;;;5032167;28;20200;-84
2022/04/25 00:31:06;;;;;;;4.43;4.03;;;23.20;51.80;;;;;;5015094;28;20187;-83
2022/04/25 00:33:33;;;;;;;4.00;3.60;;;23.20;51.70;;;;;;4998682;28;20428;-84
2022/04/25 00:36:00;;;;;;;4.03;3.70;;;23.20;51.70;;;;;;5031585;28;20419;-84
2022/04/25 00:38:26;;;;;;;5.73;3.60;;;23.20;51.70;;;;;;5013355;28;20457;-84
2022/04/25 00:40:52;;;;;;;3.70;3.33;;;23.20;51.70;;;;;;5013874;28;20443;-84
2022/04/25 00:43:19;;;;;;;3.50;3.20;;;23.20;51.70;;;;;;5015347;28;20423;-83
2022/04/25 00:45:46;;;;;;;3.70;3.40;;;23.20;51.70;;;;;;5030970;28;20419;-83
2022/04/25 00:48:14;;;;;;;4.50;4.10;;;23.20;51.70;;;;;;5015050;28;20473;-84
2022/04/25 00:50:40;;;;;;;3.77;3.47;;;23.20;51.70;;;;;;5032480;28;20434;-83
2022/04/25 00:53:07;;;;;;;4.27;3.67;;;23.30;51.80;;;;;;5013343;28;20423;-83
2022/04/25 00:55:39;;;;;;;4.70;3.90;;;23.20;51.70;;;;;;5017482;28;20415;-84
2022/04/25 00:58:05;;;;;;;4.07;3.67;;;23.20;51.70;;;;;;5021014;28;20435;-83
2022/04/25 01:00:33;;;;;;;4.07;3.67;;;23.20;51.70;;;;;;5020712;28;20426;-83
2022/04/25 01:02:59;;;;;;;3.93;3.40;;;23.20;51.70;;;;;;5004177;28;20925;-84
2022/04/25 01:05:26;;;;;;;3.70;3.23;;;23.20;51.70;;;;;;5004106;28;20412;-83
2022/04/25 01:07:52;;;;;;;3.93;3.53;;;23.20;51.70;;;;;;5019220;28;20455;-84
2022/04/25 01:10:18;;;;;;;3.83;3.50;;;23.20;51.70;;;;;;5003938;28;20422;-83
2022/04/25 01:12:44;;;;;;;4.73;4.33;;;23.20;51.70;;;;;;5019638;28;20423;-84
2022/04/25 01:15:12;;;;;;;3.60;3.30;;;23.20;51.70;;;;;;5019866;28;20442;-84
2022/04/25 01:17:40;;;;;;;3.90;3.50;;;23.20;51.70;;;;;;5037008;28;20407;-84
2022/04/25 01:20:07;;;;;;;4.00;3.60;;;23.20;51.70;;;;;;5036742;28;20443;-83
2022/04/25 01:28:39;;;;;;;3.47;2.97;;;23.20;51.80;;;;;;4938967;29;20565;-84
2022/04/25 01:31:05;;;;;;;4.73;3.60;;;23.20;51.80;;;;;;4922456;29;20436;-83
2022/04/25 01:33:31;;;;;;;5.00;3.90;;;23.10;51.80;;;;;;4921802;29;20455;-84
2022/04/25 01:35:58;;;;;;;3.50;3.20;;;23.20;51.80;;;;;;4922083;29;20314;-84
2022/04/25 01:38:24;;;;;;;3.87;3.57;;;23.10;51.80;;;;;;4922613;29;20463;-84
2022/04/25 01:40:50;;;;;;;3.80;3.40;;;23.20;51.80;;;;;;4938013;29;20416;-84
2022/04/25 01:43:15;;;;;;;3.70;3.33;;;23.20;51.80;;;;;;4938819;29;20218;-84
2022/04/25 01:49:03;;;;;;;3.70;3.10;;;23.20;51.80;;;;;;4937386;29;20239;-83
2022/04/25 01:51:31;;;;;;;3.90;3.47;;;23.10;51.80;;;;;;4937643;29;20498;-84
2022/04/25 01:53:57;;;;;;;3.80;3.50;;;23.10;51.80;;;;;;4937504;29;20448;-84
2022/04/25 01:56:23;;;;;;;3.47;3.10;;;23.10;51.80;;;;;;4922135;29;20424;-84
2022/04/25 01:58:50;;;;;;;4.30;3.40;;;23.10;51.80;;;;;;4921863;29;20895;-84
2022/04/25 02:01:16;;;;;;;3.70;3.40;;;23.10;51.80;;;;;;4927619;28;20435;-84
2022/04/25 02:03:43;;;;;;;3.57;3.27;;;23.10;51.80;;;;;;5019604;28;20420;-84
2022/04/25 02:06:11;;;;;;;3.33;3.03;;;23.10;51.80;;;;;;5019460;28;20416;-83
2022/04/25 02:08:38;;;;;;;4.03;3.63;;;23.10;51.80;;;;;;5034611;28;20431;-84
2022/04/25 02:11:19;;;;;;;4.60;4.20;;;23.10;51.80;;;;;;5035996;28;20414;-84
2022/04/25 02:13:50;;;;;;;3.60;3.30;;;23.10;51.80;;;;;;5018990;28;20395;-84
2022/04/25 02:16:18;;;;;;;4.00;3.10;;;23.10;51.80;;;;;;5017952;28;20901;-84
2022/04/25 02:18:44;;;;;;;3.70;3.40;;;23.10;51.80;;;;;;5018098;28;20447;-84
2022/04/25 02:21:12;;;;;;;4.30;3.63;;;23.10;51.80;;;;;;5016516;28;20435;-84
2022/04/25 02:23:39;;;;;;;4.10;3.70;;;23.10;52.40;;;;;;5034841;28;20412;-84
2022/04/25 02:26:08;;;;;;;3.87;3.13;;;23.10;51.80;;;;;;5017747;28;20416;-84
2022/04/25 02:28:37;;;;;;;3.60;3.30;;;23.10;52.40;;;;;;5033776;28;20482;-84
2022/04/25 02:31:04;;;;;;;3.63;3.20;;;23.10;51.80;;;;;;5016855;28;20443;-84
2022/04/25 02:33:32;;;;;;;4.00;2.90;;;23.10;51.80;;;;;;5017418;28;20430;-84
2022/04/25 02:35:59;;;;;;;3.77;3.33;;;23.10;51.80;;;;;;5017756;28;20426;-84
2022/04/25 02:38:25;;;;;;;3.30;3.00;;;23.10;51.80;;;;;;5017348;28;20478;-84
2022/04/25 02:41:06;;;;;;;4.20;3.47;;;23.10;51.80;;;;;;5017308;28;20491;-84
2022/04/25 02:43:39;;;;;;;3.70;3.17;;;23.10;51.80;;;;;;5005730;28;20180;-84
2022/04/25 02:46:07;;;;;;;3.57;3.27;;;23.10;51.80;;;;;;5017463;28;20399;-84
2022/04/25 02:48:35;;;;;;;3.20;2.90;;;23.10;51.80;;;;;;5034483;28;20438;-84
2022/04/25 02:51:03;;;;;;;4.27;3.50;;;23.10;51.80;;;;;;5017039;28;20491;-84
2022/04/25 02:53:30;;;;;;;3.30;3.00;;;23.10;51.80;;;;;;5034236;28;20418;-84
2022/04/25 02:55:56;;;;;;;3.20;2.90;;;23.10;51.80;;;;;;5001351;28;20411;-84
2022/04/25 02:58:23;;;;;;;3.00;2.70;;;23.10;51.80;;;;;;5017823;28;20419;-84
2022/04/25 03:00:49;;;;;;;3.20;2.90;;;23.10;51.80;;;;;;5016930;28;20416;-84
2022/04/25 03:03:17;;;;;;;3.90;3.30;;;23.10;51.80;;;;;;5016490;28;20434;-84
2022/04/25 03:05:47;;;;;;;3.83;3.33;;;23.10;51.80;;;;;;5015574;28;20423;-84
2022/04/25 03:08:17;;;;;;;3.60;3.30;;;23.10;51.80;;;;;;5033324;28;20451;-84
2022/04/25 03:10:43;;;;;;;3.50;3.20;;;23.10;51.80;;;;;;5016552;28;20423;-84
2022/04/25 03:13:10;;;;;;;3.20;2.90;;;23.10;51.80;;;;;;5033291;28;20392;-84
2022/04/25 03:15:40;;;;;;;3.33;2.90;;;23.10;51.80;;;;;;5032840;28;20442;-84
2022/04/25 03:18:10;;;;;;;3.17;2.80;;;23.10;51.80;;;;;;5016433;28;20737;-84
2022/04/25 03:20:35;;;;;;;3.77;2.87;;;23.10;51.80;;;;;;5015885;28;20427;-84
2022/04/25 03:23:01;;;;;;;3.70;3.10;;;23.10;51.80;;;;;;5032269;28;20406;-84
2022/04/25 03:25:34;;;;;;;3.50;3.03;;;23.10;51.80;;;;;;5033393;28;20196;-84
2022/04/25 03:28:01;;;;;;;3.70;3.40;;;23.10;51.80;;;;;;5032551;28;20458;-83
2022/04/25 03:30:31;;;;;;;2.63;2.43;;;23.10;51.80;;;;;;5032937;28;20414;-84
2022/04/25 03:33:01;;;;;;;3.10;2.80;;;23.10;51.80;;;;;;5033662;28;20415;-84
2022/04/25 03:35:28;;;;;;;3.33;2.70;;;23.10;51.80;;;;;;5016097;28;20411;-84
2022/04/25 03:37:54;;;;;;;4.97;3.13;;;23.10;51.80;;;;;;5033622;28;20479;-84
2022/04/25 03:40:20;;;;;;;2.80;2.53;;;23.10;51.80;;;;;;5017628;28;20415;-83
2022/04/25 03:42:46;;;;;;;3.03;2.80;;;23.10;51.80;;;;;;5017953;28;20176;-83
2022/04/25 03:45:16;;;;;;;3.60;3.03;;;23.10;51.80;;;;;;5035286;28;20427;-84
2022/04/25 03:47:44;;;;;;;3.10;2.73;;;23.10;51.80;;;;;;5018338;28;20483;-84
2022/04/25 03:50:12;;;;;;;4.10;3.37;;;23.10;51.80;;;;;;5017704;28;20419;-84
2022/04/25 03:52:40;;;;;;;2.97;2.67;;;23.10;51.80;;;;;;5017807;28;20430;-84
2022/04/25 03:57:53;;;;;;;3.13;2.83;;;23.10;51.80;;;;;;5034627;28;20410;-83
2022/04/25 04:00:20;;;;;;;2.90;2.60;;;23.10;51.80;;;;;;5017738;28;20428;-83
2022/04/25 04:02:47;;;;;;;3.80;2.97;;;23.10;51.80;;;;;;5017057;28;20438;-84
2022/04/25 04:05:15;;;;;;;2.60;2.37;;;23.10;51.80;;;;;;5033942;28;20437;-84
2022/04/25 04:07:42;;;;;;;3.70;2.87;;;23.10;51.80;;;;;;5033343;28;20454;-84
2022/04/25 04:10:08;;;;;;;2.97;2.53;;;23.10;51.80;;;;;;5016731;28;20418;-84
2022/04/25 04:12:34;;;;;;;3.20;2.90;;;23.10;51.80;;;;;;5033477;28;20404;-83
2022/04/25 04:15:05;;;;;;;2.67;2.40;;;23.10;51.80;;;;;;5017519;28;20423;-83
2022/04/25 04:17:32;;;;;;;3.43;2.80;;;23.10;51.80;;;;;;5033874;28;20396;-83
2022/04/25 04:19:58;;;;;;;2.83;2.53;;;23.10;51.80;;;;;;5016367;28;20466;-85
2022/04/25 04:22:29;;;;;;;3.30;3.00;;;23.10;51.80;;;;;;4999758;28;20436;-84
2022/04/25 04:25:08;;;;;;;3.00;2.70;;;23.10;51.80;;;;;;5016389;28;20491;-83
2022/04/25 04:27:34;;;;;;;2.50;2.30;;;23.10;51.80;;;;;;5016202;28;20422;-83
2022/04/25 04:30:02;;;;;;;3.20;2.90;;;23.10;51.90;;;;;;5016777;28;20427;-84
2022/04/25 04:32:30;;;;;;;3.67;3.07;;;23.10;51.80;;;;;;5039835;28;20470;-84
2022/04/25 04:34:58;;;;;;;2.57;2.37;;;23.10;51.80;;;;;;5022265;28;20403;-84
2022/04/25 04:37:25;;;;;;;3.57;3.20;;;23.10;51.80;;;;;;5039090;28;20810;-85
2022/04/25 04:40:28;;;;;;;3.20;2.90;;;23.10;51.80;;;;;;5021558;28;20449;-84
2022/04/25 04:42:38;;;;;;;2.70;2.50;;;23.10;51.80;;;;;;5038574;28;20415;-84
2022/04/25 04:45:06;;;;;;;3.50;3.20;;;23.10;52.00;;;;;;5021441;28;20513;-84
2022/04/25 04:47:36;;;;;;;4.50;2.83;;;23.10;51.80;;;;;;5021439;28;20414;-84
2022/04/25 04:50:05;;;;;;;3.33;2.67;;;23.10;51.80;;;;;;5020902;28;20502;-84
2022/04/25 04:52:31;;;;;;;2.67;2.47;;;23.10;51.80;;;;;;5020996;28;20454;-84
2022/04/25 04:54:57;;;;;;;2.57;2.37;;;23.10;51.80;;;;;;5021219;28;20429;-84
2022/04/25 04:57:23;;;;;;;2.90;2.70;;;23.10;51.80;;;;;;5005195;28;20423;-84
2022/04/25 04:59:50;;;;;;;3.13;2.83;;;23.10;51.80;;;;;;5039320;28;20419;-84
2022/04/25 05:02:17;;;;;;;3.60;2.63;;;23.10;51.80;;;;;;5038481;28;20414;-84
2022/04/25 05:04:44;;;;;;;3.00;2.70;;;23.10;51.80;;;;;;5022237;28;20184;-84
2022/04/25 05:07:10;;;;;;;2.20;2.00;;;23.10;51.80;;;;;;5026699;28;20449;-84
2022/04/25 05:09:36;;;;;;;2.50;2.30;;;23.10;52.30;;;;;;5021761;28;20450;-85
2022/04/25 05:12:02;;;;;;;3.43;3.13;;;23.10;51.80;;;;;;5020742;28;20422;-85
2022/04/25 05:14:34;;;;;;;3.50;2.70;;;23.10;51.80;;;;;;5038430;28;20470;-84
2022/04/25 05:17:00;;;;;;;2.60;2.40;;;23.10;51.80;;;;;;5038673;28;20207;-86
2022/04/25 05:19:27;;;;;;;2.60;2.40;;;23.10;51.80;;;;;;5037841;28;20423;-85
2022/04/25 05:21:53;;;;;;;3.03;2.70;;;23.10;51.80;;;;;;5038894;28;20255;-84
2022/04/25 05:24:18;;;;;;;2.90;2.67;;;23.10;51.80;;;;;;5037981;28;20458;-85
2022/04/25 05:26:44;;;;;;;2.73;2.17;;;23.10;51.80;;;;;;5037520;28;20168;-84
2022/04/25 05:29:14;;;;;;;2.70;2.40;;;23.10;51.80;;;;;;5004959;28;20211;-84
2022/04/25 05:31:41;;;;;;;3.37;2.60;;;23.10;51.80;;;;;;5021018;28;20175;-84
2022/04/25 05:34:09;;;;;;;2.90;2.60;;;23.10;51.80;;;;;;5021528;28;20446;-83
2022/04/25 05:36:47;;;;;;;2.67;2.40;;;23.10;51.80;;;;;;5015257;28;20491;-85
2022/04/25 05:39:16;;;;;;;3.40;2.93;;;23.10;51.80;;;;;;5019585;28;20487;-84
2022/04/25 05:41:42;;;;;;;2.87;2.67;;;23.10;51.80;;;;;;5035799;28;20445;-84
2022/04/25 05:44:10;;;;;;;2.60;2.40;;;23.10;51.80;;;;;;5034559;28;20486;-84
2022/04/25 05:46:36;;;;;;;3.13;2.30;;;23.10;51.80;;;;;;5017553;28;20423;-84
2022/04/25 05:52:00;;;;;;;2.73;2.50;;;23.10;51.80;;;;;;5019942;28;20487;-84
2022/04/25 05:54:27;;;;;;;2.50;2.30;;;23.10;51.80;;;;;;5016713;28;20426;-84
2022/04/25 05:56:54;;;;;;;3.43;2.67;;;23.10;51.80;;;;;;4997671;28;20439;-84
2022/04/25 05:59:20;;;;;;;3.00;2.70;;;23.00;51.70;;;;;;4982077;28;20434;-84
2022/04/25 06:01:45;;;;;;;2.53;2.30;;;23.00;51.80;;;;;;5033946;28;20491;-84
2022/04/25 06:04:11;;;;;;;3.03;2.70;;;23.10;51.80;;;;;;5015490;28;20252;-85
2022/04/25 06:06:37;;;;;;;2.73;2.53;;;23.00;51.70;;;;;;5033154;28;20180;-85
2022/04/25 06:09:03;;;;;;;1.97;1.87;;;23.00;51.70;;;;;;5016841;28;20542;-84
2022/04/25 06:11:31;;;;;;;3.20;2.90;;;23.10;51.80;;;;;;5033430;28;20183;-84
2022/04/25 06:13:57;;;;;;;2.90;2.70;;;23.00;51.70;;;;;;5016321;28;20185;-84
2022/04/25 06:16:23;;;;;;;2.37;2.17;;;23.00;51.70;;;;;;5013103;28;20426;-84
2022/04/25 06:18:51;;;;;;;2.67;2.23;;;23.00;51.70;;;;;;4980356;28;20520;-84
2022/04/25 06:21:19;;;;;;;2.47;2.07;;;23.00;51.70;;;;;;5015182;28;20434;-85
2022/04/25 06:23:45;;;;;;;2.83;2.50;;;23.00;51.70;;;;;;5014786;28;20941;-85
2022/04/25 06:26:12;;;;;;;2.80;2.60;;;23.00;51.70;;;;;;5029241;28;20419;-85
2022/04/25 06:28:41;;;;;;;2.23;2.03;;;23.10;51.80;;;;;;5031613;28;20455;-85
2022/04/25 06:31:07;;;;;;;3.30;3.00;;;23.10;51.80;;;;;;5017644;28;20417;-85
2022/04/25 06:33:33;;;;;;;2.67;2.00;;;23.00;51.70;;;;;;5034619;28;20411;-85
2022/04/25 06:36:00;;;;;;;2.43;2.20;;;23.00;51.70;;;;;;5017643;28;20453;-85
2022/04/25 06:38:26;;;;;;;2.20;2.00;;;23.00;51.70;;;;;;5017896;28;20166;-84
2022/04/25 06:40:52;;;;;;;2.47;2.27;;;23.00;51.70;;;;;;5034253;28;20415;-85
2022/04/25 06:43:18;;;;;;;2.50;2.30;;;23.00;51.70;;;;;;5017028;28;20184;-85
2022/04/25 06:45:47;;;;;;;3.40;2.40;;;23.00;51.70;;;;;;5016965;28;20573;-85
2022/04/25 06:48:13;;;;;;;2.93;2.70;;;23.00;51.70;;;;;;5017317;28;20211;-85
2022/04/25 06:50:38;;;;;;;2.70;2.50;;;23.00;51.70;;;;;;5017450;28;20446;-85
2022/04/25 06:53:04;;;;;;;2.60;2.40;;;23.00;51.70;;;;;;5016992;28;20423;-85
2022/04/25 06:55:34;;;;;;;2.40;2.20;;;23.00;51.70;;;;;;5016476;28;20196;-85
2022/04/25 06:58:00;;;;;;;3.40;3.00;;;23.00;51.70;;;;;;5033907;28;20411;-85
2022/04/25 07:00:28;;;;;;;2.30;2.10;;;23.00;51.70;;;;;;5033591;28;20415;-85
2022/04/25 07:02:54;;;;;;;2.57;2.37;;;23.00;51.70;;;;;;5016947;28;20439;-85
2022/04/25 07:05:20;;;;;;;2.23;2.00;;;23.00;51.70;;;;;;5017786;28;20423;-86
2022/04/25 07:07:45;;;;;;;2.80;2.60;;;23.00;51.70;;;;;;5017185;28;20207;-85
2022/04/25 07:10:11;;;;;;;2.43;2.23;;;23.00;51.70;;;;;;5033712;28;20427;-85
2022/04/25 07:12:37;;;;;;;2.67;2.10;;;23.00;51.70;;;;;;5017835;28;20250;-86
2022/04/25 07:15:07;;;;;;;2.83;2.50;;;23.00;51.70;;;;;;5000403;28;20527;-86
2022/04/25 07:17:34;;;;;;;2.23;2.03;;;23.00;51.70;;;;;;5017742;28;20416;-85
2022/04/25 07:20:00;;;;;;;2.10;1.90;;;23.00;51.80;;;;;;5017199;28;20415;-85
2022/04/25 07:30:46;;;;;;;2.63;2.23;;;23.00;51.80;;;;;;5013862;28;20392;-84
2022/04/25 07:33:14;;;;;;;2.27;2.07;;;23.00;51.80;;;;;;5014252;28;20408;-85
2022/04/25 07:35:43;;;;;;;2.67;2.47;;;23.00;51.80;;;;;;5013897;28;20411;-85
2022/04/25 07:38:10;;;;;;;2.37;2.17;;;23.00;51.80;;;;;;5013829;28;20471;-85
2022/04/25 07:40:41;;;;;;;2.20;2.00;;;23.00;51.80;;;;;;4996854;28;20423;-84
2022/04/25 07:43:06;;;;;;;2.47;2.27;;;23.00;51.80;;;;;;4981385;28;20426;-85
2022/04/25 07:45:36;;;;;;;2.30;2.10;;;23.00;51.80;;;;;;5012551;28;20416;-84
2022/04/25 07:48:03;;;;;;;2.23;2.03;;;23.00;51.80;;;;;;5013176;28;20519;-84
2022/04/25 07:50:29;;;;;;;3.07;2.07;;;23.00;51.80;;;;;;4979565;28;20424;-84
2022/04/25 07:52:57;;;;;;;2.30;2.10;;;23.00;51.80;;;;;;4996359;28;20483;-85
2022/04/25 07:55:23;;;;;;;2.50;2.30;;;23.00;51.80;;;;;;5013010;28;20173;-85
2022/04/25 07:57:49;;;;;;;2.43;2.03;;;23.00;51.80;;;;;;4996239;28;20423;-85
2022/04/25 08:00:15;;;;;;;2.50;2.30;;;23.00;51.80;;;;;;5012687;28;20431;-86
2022/04/25 08:02:41;;;;;;;2.20;2.00;;;23.00;51.80;;;;;;4995668;28;20188;-86
2022/04/25 08:05:07;;;;;;;2.17;1.97;;;23.00;51.80;;;;;;4994485;28;20180;-85
2022/04/25 08:07:32;;;;;;;2.30;2.10;;;23.00;51.80;;;;;;5012183;28;20428;-86
2022/04/25 08:09:58;;;;;;;2.03;1.87;;;23.00;51.70;;;;;;4994968;28;20173;-85
2022/04/25 08:18:01;;;;;;;2.57;2.03;;;23.00;51.80;;;;;;5012630;28;20412;-86
2022/04/25 08:20:30;;;;;;;2.77;2.20;;;23.00;51.80;;;;;;4995528;28;20443;-86
2022/04/25 08:22:59;;;;;;;2.07;1.90;;;23.00;51.80;;;;;;4995244;28;20459;-86
2022/04/25 08:25:26;;;;;;;2.50;2.30;;;23.00;51.80;;;;;;4994850;28;20408;-86
2022/04/25 08:27:52;;;;;;;2.37;2.00;;;23.00;51.80;;;;;;4995140;28;20491;-85
2022/04/25 08:30:19;;;;;;;2.43;1.93;;;23.00;51.80;;;;;;5011852;28;20913;-86
2022/04/25 08:32:46;;;;;;;2.07;1.87;;;23.00;51.80;;;;;;5012269;28;20413;-85
2022/04/25 08:35:13;;;;;;;2.00;1.90;;;23.00;51.80;;;;;;4995474;28;20428;-85
2022/04/25 08:37:40;;;;;;;2.17;1.97;;;23.00;51.80;;;;;;5012211;28;20414;-85
2022/04/25 08:40:06;;;;;;;1.90;1.80;;;23.00;51.80;;;;;;4994832;28;20871;-85
2022/04/25 08:42:32;;;;;;;2.30;2.10;;;23.00;51.70;;;;;;5012374;28;20412;-85
2022/04/25 08:45:00;;;;;;;2.00;1.80;;;23.00;52.30;;;;;;4994679;28;20428;-85
2022/04/25 08:47:29;;;;;;;2.10;1.80;;;23.00;51.80;;;;;;5008532;28;20536;-85
2022/04/25 08:49:58;;;;;;;2.13;1.93;;;23.00;51.80;;;;;;5010174;28;20419;-85
2022/04/25 08:52:27;;;;;;;2.23;1.70;;;23.00;51.80;;;;;;4994723;28;20417;-86
2022/04/25 08:54:57;;;;;;;2.40;1.73;;;23.00;51.80;;;;;;4992627;28;20419;-85
2022/04/25 08:57:28;;;;;;;2.17;1.97;;;23.00;51.70;;;;;;5010812;28;20403;-85
2022/04/25 08:59:55;;;;;;;2.53;2.33;;;23.00;51.70;;;;;;5011558;28;20381;-85
2022/04/25 09:02:22;;;;;;;2.27;2.00;;;23.00;51.80;;;;;;4992797;28;20401;-85
2022/04/25 09:04:53;;;;;;;3.03;2.63;;;23.00;51.80;;;;;;5010958;28;20469;-85
2022/04/25 09:07:19;;;;;;;2.27;2.07;;;23.00;51.80;;;;;;4994846;28;20409;-85
2022/04/25 09:09:45;;;;;;;1.90;1.63;;;23.00;51.80;;;;;;4994988;28;20498;-85
2022/04/25 09:12:15;;;;;;;2.23;2.03;;;23.00;51.80;;;;;;4994643;28;20424;-85
2022/04/25 09:14:43;;;;;;;2.70;2.50;;;23.00;51.70;;;;;;5030250;28;20474;-85
2022/04/25 09:17:08;;;;;;;1.63;1.53;;;23.00;51.70;;;;;;5015887;28;20403;-85
2022/04/25 09:19:36;;;;;;;2.40;2.20;;;23.00;51.70;;;;;;5034976;28;20784;-85
2022/04/25 09:22:03;;;;;;;2.30;2.10;;;23.00;51.70;;;;;;5001650;28;20538;-85
2022/04/25 09:24:32;;;;;;;2.03;1.83;;;23.00;51.70;;;;;;5017589;28;20454;-85
2022/04/25 09:27:08;;;;;;;2.03;1.90;;;23.00;51.70;;;;;;5035555;28;20534;-85
2022/04/25 09:29:36;;;;;;;2.13;1.83;;;23.00;51.70;;;;;;5035369;28;20450;-85
2022/04/25 09:32:03;;;;;;;2.13;1.90;;;23.00;51.70;;;;;;4998583;28;20420;-85
2022/04/25 09:37:15;;;;;;;1.70;1.53;;;23.00;51.80;;;;;;5035535;28;20445;-85
2022/04/25 09:39:40;;;;;;;2.00;1.80;;;23.00;51.80;;;;;;5017782;28;20427;-85
2022/04/25 09:42:08;;;;;;;1.83;1.70;;;23.00;51.80;;;;;;5035327;28;20407;-85
2022/04/25 09:44:57;;;;;;;3.33;2.20;;;23.00;51.80;;;;;;5015775;28;20188;-85
2022/04/25 09:47:34;;;;;;;2.27;1.87;;;23.00;51.80;;;;;;5015035;28;20419;-85
2022/04/25 09:50:04;;;;;;;2.20;2.00;;;23.00;51.80;;;;;;5014783;28;20427;-86
2022/04/25 09:52:35;;;;;;;2.30;2.10;;;23.00;51.80;;;;;;5015164;28;20412;-86
2022/04/25 09:55:15;;;;;;;2.03;1.83;;;23.00;51.80;;;;;;5028653;28;20413;-86
2022/04/25 09:57:42;;;;;;;1.90;1.73;;;23.00;51.80;;;;;;5017569;28;20404;-86
2022/04/25 10:00:08;;;;;;;2.00;1.80;;;23.00;51.80;;;;;;5016895;28;20439;-85
2022/04/25 10:02:39;;;;;;;2.30;1.90;;;23.00;51.80;;;;;;5017654;28;20410;-86
2022/04/25 10:05:15;;;;;;;2.53;2.07;;;23.00;51.80;;;;;;5017965;28;20404;-86
2022/04/25 10:07:42;;;;;;;2.30;2.10;;;23.00;51.80;;;;;;5017136;28;20430;-86
2022/04/25 10:10:13;;;;;;;2.97;2.07;;;23.00;51.80;;;;;;5017388;28;20418;-86
2022/04/25 10:12:39;;;;;;;2.17;1.97;;;23.00;51.80;;;;;;5017191;28;20438;-86
2022/04/25 10:15:06;;;;;;;2.13;1.93;;;23.00;51.80;;;;;;5014969;28;20432;-86
2022/04/25 10:17:36;;;;;;;1.90;1.70;;;23.00;51.80;;;;;;5003301;28;20458;-87
2022/04/25 10:20:02;;;;;;;1.70;1.50;;;23.10;51.80;;;;;;5016132;28;20430;-86
2022/04/25 10:22:29;;;;;;;2.77;2.20;;;23.10;51.80;;;;;;5016336;28;20443;-86
2022/04/25 10:24:55;;;;;;;1.90;1.80;;;23.00;51.70;;;;;;5000892;28;20454;-86
2022/04/25 10:27:28;;;;;;;2.00;1.80;;;23.00;51.70;;;;;;5016945;28;20897;-86
2022/04/25 10:29:58;;;;;;;1.70;1.60;;;23.10;51.80;;;;;;5015847;28;20195;-86
2022/04/25 10:32:25;;;;;;;1.83;1.67;;;23.10;51.80;;;;;;5017730;28;20412;-85
2022/04/25 10:35:01;;;;;;;2.20;1.80;;;23.10;51.80;;;;;;5017464;28;20412;-85
2022/04/25 10:37:38;;;;;;;2.37;2.10;;;23.10;51.80;;;;;;5017863;28;20384;-86
2022/04/25 10:40:08;;;;;;;1.80;1.70;;;23.10;51.80;;;;;;5017475;28;20400;-84
2022/04/25 10:46:11;;;;;;;1.60;1.50;;;23.10;51.80;;;;;;5035532;28;20475;-84
2022/04/25 10:49:07;;;;;;;2.20;2.00;;;23.10;52.40;;;;;;5013296;28;20475;-84
2022/04/25 10:51:41;;;;;;;2.90;2.20;;;23.00;51.80;;;;;;5017898;28;20439;-84
2022/04/25 10:54:08;;;;;;;2.70;2.23;;;23.10;51.90;;;;;;5018126;28;20415;-84
2022/04/25 10:56:35;;;;;;;5.30;2.83;;;23.00;51.80;;;;;;5034843;28;20479;-84
2022/04/25 10:59:24;;;;;;;2.60;2.27;;;23.10;51.90;;;;;;5017040;28;20416;-84
2022/04/25 11:01:52;;;;;;;2.73;1.90;;;23.10;51.80;;;;;;5035266;28;20479;-84
2022/04/25 11:04:23;;;;;;;3.00;1.90;;;23.10;51.80;;;;;;5035110;28;20403;-85
2022/04/25 11:07:21;;;;;;;2.53;2.00;;;23.10;51.90;;;;;;5017026;28;20447;-85
2022/04/25 11:09:50;;;;;;;2.63;2.40;;;23.10;51.80;;;;;;5017214;28;20451;-85
2022/04/25 11:12:16;;;;;;;3.90;2.00;;;23.10;51.80;;;;;;5034053;28;20471;-85
2022/04/25 11:14:59;;;;;;;6.57;3.80;;;23.10;51.80;;;;;;5018318;28;20435;-84
2022/04/25 11:17:33;;;;;;;3.67;2.17;;;23.10;51.80;;;;;;5034593;28;20404;-85
2022/04/25 11:19:59;;;;;;;3.17;2.87;;;23.10;51.80;;;;;;5017912;28;20940;-85
2022/04/25 11:22:49;;;;;;;3.30;2.20;;;23.10;51.80;;;;;;5017460;28;20435;-85
2022/04/25 11:25:27;;;;;;;3.63;2.30;;;23.10;51.80;;;;;;4961948;28;20429;-85
2022/04/25 11:28:08;;;;;;;4.27;2.53;;;23.10;51.80;;;;;;4977362;28;20461;-84
2022/04/25 11:30:41;;;;;;;2.90;2.60;;;23.10;51.80;;;;;;4993923;28;20417;-84
2022/04/25 11:33:12;;;;;;;4.10;2.90;;;23.10;51.80;;;;;;4977988;28;20412;-85
2022/04/25 11:35:43;;;;;;;4.80;3.13;;;23.10;51.80;;;;;;4977928;28;20417;-85
2022/04/25 11:38:10;;;;;;;3.80;2.73;;;23.10;51.80;;;;;;4994500;28;20401;-84
2022/04/25 11:40:36;;;;;;;5.30;2.60;;;23.10;52.30;;;;;;4993596;28;20421;-85
2022/04/25 11:43:03;;;;;;;5.83;3.20;;;23.10;51.80;;;;;;4977853;28;20421;-85
2022/04/25 11:45:32;;;;;;;4.43;2.67;;;23.10;51.80;;;;;;4994207;28;20174;-85
2022/04/25 11:47:59;;;;;;;4.87;3.03;;;23.10;51.80;;;;;;4994358;28;20914;-84
2022/04/25 11:50:27;;;;;;;5.00;2.80;;;23.20;51.90;;;;;;4994322;28;20421;-85
2022/04/25 11:52:55;;;;;;;5.30;3.07;;;23.20;51.80;;;;;;4978052;28;20408;-85
2022/04/25 11:55:38;;;;;;;3.87;2.80;;;23.20;51.80;;;;;;4993576;28;20541;-85
2022/04/25 11:58:09;;;;;;;5.60;3.07;;;23.20;51.90;;;;;;4977810;28;20405;-85
2022/04/25 12:00:37;;;;;;;2.90;2.43;;;23.10;51.80;;;;;;4993713;28;20422;-85
2022/04/25 12:03:03;;;;;;;5.20;2.60;;;23.20;51.90;;;;;;5029204;28;20446;-85
2022/04/25 12:05:31;;;;;;;5.60;2.83;;;23.20;51.90;;;;;;5000484;28;20422;-85
2022/04/25 12:16:14;;;;;;;8.00;3.60;;;23.20;51.90;;;;;;5019344;28;20443;-85
2022/04/25 12:18:53;;;;;;;4.57;3.07;;;23.10;51.80;;;;;;5015935;28;20438;-85
2022/04/25 12:21:20;;;;;;;5.37;2.80;;;23.20;51.90;;;;;;5017488;28;20482;-85
2022/04/25 12:23:59;;;;;;;4.70;3.10;;;23.20;51.90;;;;;;5017327;28;20439;-85
2022/04/25 12:26:32;;;;;;;3.60;3.00;;;23.20;51.90;;;;;;5018631;28;20411;-85
2022/04/25 12:29:03;;;;;;;5.07;3.67;;;23.20;51.90;;;;;;5017317;28;20449;-85
2022/04/25 12:31:50;;;;;;;5.00;3.20;;;23.20;51.90;;;;;;5016717;28;20483;-85
2022/04/25 12:34:19;;;;;;;6.50;2.67;;;23.20;51.90;;;;;;5033972;28;20446;-85
2022/04/25 12:37:00;;;;;;;4.57;3.27;;;23.20;51.90;;;;;;5033883;28;20505;-84
2022/04/25 12:39:27;;;;;;;4.00;3.10;;;23.20;51.90;;;;;;5017461;28;20482;-84
2022/04/25 12:41:58;;;;;;;5.07;3.47;;;23.10;51.80;;;;;;5016407;28;20419;-85
2022/04/25 12:44:27;;;;;;;3.83;2.60;;;23.20;51.90;;;;;;5016392;28;20933;-85
2022/04/25 12:47:05;;;;;;;3.90;3.00;;;23.20;51.90;;;;;;5016215;28;20478;-85
2022/04/25 12:49:38;;;;;;;3.90;3.20;;;23.20;51.90;;;;;;5016356;28;20451;-85
2022/04/25 12:52:06;;;;;;;4.03;2.80;;;23.20;51.90;;;;;;5017207;28;20411;-85
2022/04/25 12:54:42;;;;;;;3.70;2.83;;;23.20;51.90;;;;;;5037709;28;20501;-85
2022/04/25 12:57:23;;;;;;;4.63;2.50;;;23.20;51.90;;;;;;5020084;28;20407;-85
2022/04/25 12:59:54;;;;;;;5.10;3.70;;;23.20;51.90;;;;;;5036746;28;20383;-85
2022/04/25 13:02:32;;;;;;;7.50;3.50;;;23.20;51.90;;;;;;5019058;28;20411;-85
2022/04/25 13:05:00;;;;;;;5.03;3.00;;;23.20;51.80;;;;;;5019674;28;20773;-85
2022/04/25 13:07:31;;;;;;;5.27;2.93;;;23.10;51.70;;;;;;5019612;28;20485;-85
2022/04/25 13:09:58;;;;;;;4.50;3.13;;;23.20;51.80;;;;;;5019320;28;20447;-85
2022/04/25 13:12:32;;;;;;;6.13;3.20;;;23.20;51.80;;;;;;5019303;28;20414;-85
2022/04/25 13:14:58;;;;;;;5.10;2.90;;;23.20;51.80;;;;;;5037178;28;20396;-85
2022/04/25 13:17:25;;;;;;;3.77;2.60;;;23.20;51.80;;;;;;5002788;28;20423;-84
2022/04/25 13:19:59;;;;;;;3.73;2.80;;;23.10;51.80;;;;;;5036882;28;20411;-84
2022/04/25 13:22:26;;;;;;;6.30;3.03;;;23.20;51.80;;;;;;5018546;28;20446;-85
2022/04/25 13:24:52;;;;;;;3.97;2.73;;;23.20;51.80;;;;;;5035063;28;20411;-85
2022/04/25 13:27:18;;;;;;;5.13;3.17;;;23.20;51.90;;;;;;5003184;28;20447;-84
2022/04/25 13:29:44;;;;;;;3.73;2.70;;;23.20;51.90;;;;;;5018729;28;20512;-84
2022/04/25 13:32:12;;;;;;;3.27;2.47;;;23.20;52.40;;;;;;5019313;28;20475;-84
2022/04/25 13:34:41;;;;;;;8.47;3.47;;;23.20;51.80;;;;;;5018721;28;20450;-84
2022/04/25 13:37:07;;;;;;;4.90;2.80;;;23.20;51.90;;;;;;5035466;28;20403;-86
2022/04/25 13:39:34;;;;;;;4.87;2.70;;;23.20;51.90;;;;;;5034867;28;20419;-85